sensor_id;sensor_type;location;lat;lon;timestamp;temperature;humidity
46356;DHT22;32066;49.474;11.106;2023-02-01T00:02:03;6.90;97.10
46356;DHT22;32066;49.474;11.106;2023-02-01T00:04:30;6.90;97.10
46356;DHT22;32066;49.474;11.106;2023-02-01T00:06:58;6.90;97.20
46356;DHT22;32066;49.474;11.106;2023-02-01T00:09:26;6.90;97.30
46356;DHT22;32066;49.474;11.106;2023-02-01T00:11:53;6.90;97.30
46356;DHT22;32066;49.474;11.106;2023-02-01T00:14:19;6.90;97.50
46356;DHT22;32066;49.474;11.106;2023-02-01T00:16:46;6.90;97.50
46356;DHT22;32066;49.474;11.106;2023-02-01T00:19:15;6.90;97.40
46356;DHT22;32066;49.474;11.106;2023-02-01T00:21:41;6.90;97.50
46356;DHT22;32066;49.474;11.106;2023-02-01T00:24:12;6.90;97.60
46356;DHT22;32066;49.474;11.106;2023-02-01T00:26:40;6.90;97.60
46356;DHT22;32066;49.474;11.106;2023-02-01T00:29:11;6.90;97.70
46356;DHT22;32066;49.474;11.106;2023-02-01T00:31:38;6.90;97.80
46356;DHT22;32066;49.474;11.106;2023-02-01T00:34:05;6.90;97.80
46356;DHT22;32066;49.474;11.106;2023-02-01T00:36:32;6.90;97.80
46356;DHT22;32066;49.474;11.106;2023-02-01T00:38:59;6.90;97.80
46356;DHT22;32066;49.474;11.106;2023-02-01T00:41:27;6.90;97.80
46356;DHT22;32066;49.474;11.106;2023-02-01T00:43:54;6.90;97.70
46356;DHT22;32066;49.474;11.106;2023-02-01T00:46:21;6.90;97.80
46356;DHT22;32066;49.474;11.106;2023-02-01T00:48:48;7.00;97.90
46356;DHT22;32066;49.474;11.106;2023-02-01T00:51:17;7.00;97.80
46356;DHT22;32066;49.474;11.106;2023-02-01T00:53:44;7.00;97.80
46356;DHT22;32066;49.474;11.106;2023-02-01T00:56:11;7.00;97.90
46356;DHT22;32066;49.474;11.106;2023-02-01T00:58:39;7.00;97.80
46356;DHT22;32066;49.474;11.106;2023-02-01T01:01:08;7.00;97.80
46356;DHT22;32066;49.474;11.106;2023-02-01T01:03:37;7.00;97.80
46356;DHT22;32066;49.474;11.106;2023-02-01T01:06:06;7.00;97.80
46356;DHT22;32066;49.474;11.106;2023-02-01T01:08:35;7.00;97.70
46356;DHT22;32066;49.474;11.106;2023-02-01T01:11:05;7.00;97.70
46356;DHT22;32066;49.474;11.106;2023-02-01T01:13:32;7.00;97.70
46356;DHT22;32066;49.474;11.106;2023-02-01T01:16:01;7.00;97.70
46356;DHT22;32066;49.474;11.106;2023-02-01T01:18:30;7.00;97.70
46356;DHT22;32066;49.474;11.106;2023-02-01T01:20:57;7.00;97.70
46356;DHT22;32066;49.474;11.106;2023-02-01T01:23:25;7.00;97.80
46356;DHT22;32066;49.474;11.106;2023-02-01T01:25:52;6.90;97.70
46356;DHT22;32066;49.474;11.106;2023-02-01T01:28:20;6.90;97.80
46356;DHT22;32066;49.474;11.106;2023-02-01T01:30:46;6.90;97.80
46356;DHT22;32066;49.474;11.106;2023-02-01T01:33:15;6.90;97.70
46356;DHT22;32066;49.474;11.106;2023-02-01T01:35:42;7.00;97.80
46356;DHT22;32066;49.474;11.106;2023-02-01T01:38:09;7.00;97.90
46356;DHT22;32066;49.474;11.106;2023-02-01T01:40:37;7.00;98.00
46356;DHT22;32066;49.474;11.106;2023-02-01T01:43:12;7.00;98.00
46356;DHT22;32066;49.474;11.106;2023-02-01T01:45:39;7.00;98.10
46356;DHT22;32066;49.474;11.106;2023-02-01T01:48:11;7.00;98.00
46356;DHT22;32066;49.474;11.106;2023-02-01T01:50:44;6.90;98.10
46356;DHT22;32066;49.474;11.106;2023-02-01T01:53:17;7.00;98.10
46356;DHT22;32066;49.474;11.106;2023-02-01T01:55:45;7.00;98.10
46356;DHT22;32066;49.474;11.106;2023-02-01T01:58:16;6.90;98.10
46356;DHT22;32066;49.474;11.106;2023-02-01T02:00:44;6.90;98.10
46356;DHT22;32066;49.474;11.106;2023-02-01T02:03:15;6.90;98.10
46356;DHT22;32066;49.474;11.106;2023-02-01T02:05:44;6.90;98.10
46356;DHT22;32066;49.474;11.106;2023-02-01T02:08:11;6.90;98.10
46356;DHT22;32066;49.474;11.106;2023-02-01T02:10:38;6.90;98.10
46356;DHT22;32066;49.474;11.106;2023-02-01T02:13:26;6.90;98.10
46356;DHT22;32066;49.474;11.106;2023-02-01T02:16:06;6.90;98.10
46356;DHT22;32066;49.474;11.106;2023-02-01T02:18:44;6.90;98.10
46356;DHT22;32066;49.474;11.106;2023-02-01T02:21:27;6.90;98.10
46356;DHT22;32066;49.474;11.106;2023-02-01T02:24:17;6.90;98.20
46356;DHT22;32066;49.474;11.106;2023-02-01T02:27:11;6.90;98.10
46356;DHT22;32066;49.474;11.106;2023-02-01T02:30:20;6.90;98.10
46356;DHT22;32066;49.474;11.106;2023-02-01T02:35:52;7.00;98.10
46356;DHT22;32066;49.474;11.106;2023-02-01T02:38:26;7.00;98.10
46356;DHT22;32066;49.474;11.106;2023-02-01T02:41:10;6.90;98.00
46356;DHT22;32066;49.474;11.106;2023-02-01T02:44:01;6.90;98.00
46356;DHT22;32066;49.474;11.106;2023-02-01T02:46:52;6.90;98.10
46356;DHT22;32066;49.474;11.106;2023-02-01T02:49:39;6.90;98.10
46356;DHT22;32066;49.474;11.106;2023-02-01T02:52:13;7.00;98.10
46356;DHT22;32066;49.474;11.106;2023-02-01T02:55:03;6.90;98.10
46356;DHT22;32066;49.474;11.106;2023-02-01T02:57:35;6.90;98.20
46356;DHT22;32066;49.474;11.106;2023-02-01T03:00:24;7.00;98.20
46356;DHT22;32066;49.474;11.106;2023-02-01T03:03:10;7.00;98.30
46356;DHT22;32066;49.474;11.106;2023-02-01T03:05:56;7.00;98.30
46356;DHT22;32066;49.474;11.106;2023-02-01T03:08:25;6.90;98.30
46356;DHT22;32066;49.474;11.106;2023-02-01T03:10:56;6.90;98.30
46356;DHT22;32066;49.474;11.106;2023-02-01T03:13:31;6.80;98.30
46356;DHT22;32066;49.474;11.106;2023-02-01T03:16:01;6.90;98.40
46356;DHT22;32066;49.474;11.106;2023-02-01T03:18:35;6.90;98.30
46356;DHT22;32066;49.474;11.106;2023-02-01T03:21:07;6.90;98.40
46356;DHT22;32066;49.474;11.106;2023-02-01T03:23:37;6.90;98.40
46356;DHT22;32066;49.474;11.106;2023-02-01T03:26:07;6.90;98.40
46356;DHT22;32066;49.474;11.106;2023-02-01T03:28:36;6.90;98.50
46356;DHT22;32066;49.474;11.106;2023-02-01T03:31:06;7.00;98.50
46356;DHT22;32066;49.474;11.106;2023-02-01T03:33:33;7.00;98.50
46356;DHT22;32066;49.474;11.106;2023-02-01T03:36:08;7.00;98.50
46356;DHT22;32066;49.474;11.106;2023-02-01T03:38:41;6.90;98.50
46356;DHT22;32066;49.474;11.106;2023-02-01T03:41:24;7.00;98.50
46356;DHT22;32066;49.474;11.106;2023-02-01T03:43:56;7.00;98.50
46356;DHT22;32066;49.474;11.106;2023-02-01T03:46:29;6.90;98.50
46356;DHT22;32066;49.474;11.106;2023-02-01T03:49:02;6.90;98.60
46356;DHT22;32066;49.474;11.106;2023-02-01T03:51:31;6.90;98.50
46356;DHT22;32066;49.474;11.106;2023-02-01T03:54:02;6.90;98.50
46356;DHT22;32066;49.474;11.106;2023-02-01T03:56:32;6.90;98.60
46356;DHT22;32066;49.474;11.106;2023-02-01T03:58:59;6.90;98.50
46356;DHT22;32066;49.474;11.106;2023-02-01T04:01:32;6.90;98.50
46356;DHT22;32066;49.474;11.106;2023-02-01T04:03:58;6.90;98.60
46356;DHT22;32066;49.474;11.106;2023-02-01T04:06:26;6.90;98.50
46356;DHT22;32066;49.474;11.106;2023-02-01T04:08:57;6.90;98.50
46356;DHT22;32066;49.474;11.106;2023-02-01T04:11:25;6.90;98.50
46356;DHT22;32066;49.474;11.106;2023-02-01T04:13:53;6.90;98.50
46356;DHT22;32066;49.474;11.106;2023-02-01T04:16:19;6.90;98.50
46356;DHT22;32066;49.474;11.106;2023-02-01T04:18:46;6.90;98.50
46356;DHT22;32066;49.474;11.106;2023-02-01T04:21:13;6.90;98.60
46356;DHT22;32066;49.474;11.106;2023-02-01T04:23:40;6.90;98.60
46356;DHT22;32066;49.474;11.106;2023-02-01T04:26:06;6.90;98.60
46356;DHT22;32066;49.474;11.106;2023-02-01T04:28:34;6.90;98.60
46356;DHT22;32066;49.474;11.106;2023-02-01T04:31:01;7.00;98.60
46356;DHT22;32066;49.474;11.106;2023-02-01T04:33:29;6.90;98.50
46356;DHT22;32066;49.474;11.106;2023-02-01T04:35:56;6.90;98.60
46356;DHT22;32066;49.474;11.106;2023-02-01T04:38:22;6.90;98.60
46356;DHT22;32066;49.474;11.106;2023-02-01T04:40:49;6.90;98.60
46356;DHT22;32066;49.474;11.106;2023-02-01T04:43:17;7.00;98.70
46356;DHT22;32066;49.474;11.106;2023-02-01T04:45:48;7.00;98.70
46356;DHT22;32066;49.474;11.106;2023-02-01T04:48:15;6.90;98.70
46356;DHT22;32066;49.474;11.106;2023-02-01T04:50:43;7.00;98.80
46356;DHT22;32066;49.474;11.106;2023-02-01T04:53:12;7.00;98.80
46356;DHT22;32066;49.474;11.106;2023-02-01T04:55:39;7.00;98.80
46356;DHT22;32066;49.474;11.106;2023-02-01T04:58:06;6.90;98.70
46356;DHT22;32066;49.474;11.106;2023-02-01T05:00:33;7.00;98.80
46356;DHT22;32066;49.474;11.106;2023-02-01T05:03:01;6.90;98.80
46356;DHT22;32066;49.474;11.106;2023-02-01T05:05:28;6.90;98.90
46356;DHT22;32066;49.474;11.106;2023-02-01T05:07:55;6.90;98.90
46356;DHT22;32066;49.474;11.106;2023-02-01T05:10:22;6.90;98.90
46356;DHT22;32066;49.474;11.106;2023-02-01T05:12:49;6.90;98.90
46356;DHT22;32066;49.474;11.106;2023-02-01T05:15:33;6.90;98.90
46356;DHT22;32066;49.474;11.106;2023-02-01T05:18:01;6.90;98.90
46356;DHT22;32066;49.474;11.106;2023-02-01T05:20:28;6.90;99.00
46356;DHT22;32066;49.474;11.106;2023-02-01T05:22:55;6.90;99.10
46356;DHT22;32066;49.474;11.106;2023-02-01T05:25:22;6.90;99.10
46356;DHT22;32066;49.474;11.106;2023-02-01T05:27:48;7.00;99.10
46356;DHT22;32066;49.474;11.106;2023-02-01T05:30:16;6.90;99.10
46356;DHT22;32066;49.474;11.106;2023-02-01T05:32:43;7.00;99.20
46356;DHT22;32066;49.474;11.106;2023-02-01T05:35:11;6.90;99.10
46356;DHT22;32066;49.474;11.106;2023-02-01T05:37:37;6.90;99.20
46356;DHT22;32066;49.474;11.106;2023-02-01T05:40:06;6.90;99.10
46356;DHT22;32066;49.474;11.106;2023-02-01T05:42:33;6.90;99.10
46356;DHT22;32066;49.474;11.106;2023-02-01T05:45:00;6.90;99.10
46356;DHT22;32066;49.474;11.106;2023-02-01T05:47:26;6.90;99.20
46356;DHT22;32066;49.474;11.106;2023-02-01T05:49:53;6.90;99.20
46356;DHT22;32066;49.474;11.106;2023-02-01T05:52:21;6.80;99.30
46356;DHT22;32066;49.474;11.106;2023-02-01T05:54:48;6.80;99.30
46356;DHT22;32066;49.474;11.106;2023-02-01T05:57:15;6.80;99.30
46356;DHT22;32066;49.474;11.106;2023-02-01T05:59:42;6.80;99.40
46356;DHT22;32066;49.474;11.106;2023-02-01T06:02:10;6.80;99.60
46356;DHT22;32066;49.474;11.106;2023-02-01T06:04:37;6.80;99.40
46356;DHT22;32066;49.474;11.106;2023-02-01T06:07:04;6.80;99.40
46356;DHT22;32066;49.474;11.106;2023-02-01T06:09:34;6.80;99.40
46356;DHT22;32066;49.474;11.106;2023-02-01T06:12:02;6.80;99.40
46356;DHT22;32066;49.474;11.106;2023-02-01T06:14:29;6.80;99.40
46356;DHT22;32066;49.474;11.106;2023-02-01T06:16:55;6.80;99.40
46356;DHT22;32066;49.474;11.106;2023-02-01T06:19:23;6.80;99.40
46356;DHT22;32066;49.474;11.106;2023-02-01T06:21:49;6.80;99.40
46356;DHT22;32066;49.474;11.106;2023-02-01T06:24:16;6.80;99.40
46356;DHT22;32066;49.474;11.106;2023-02-01T06:26:45;6.70;99.30
46356;DHT22;32066;49.474;11.106;2023-02-01T06:29:12;6.70;99.30
46356;DHT22;32066;49.474;11.106;2023-02-01T06:31:39;6.70;99.30
46356;DHT22;32066;49.474;11.106;2023-02-01T06:34:07;6.70;99.30
46356;DHT22;32066;49.474;11.106;2023-02-01T06:36:34;6.70;99.30
46356;DHT22;32066;49.474;11.106;2023-02-01T06:39:01;6.70;99.30
46356;DHT22;32066;49.474;11.106;2023-02-01T06:41:28;6.70;99.30
46356;DHT22;32066;49.474;11.106;2023-02-01T06:43:56;6.70;99.30
46356;DHT22;32066;49.474;11.106;2023-02-01T06:46:23;6.70;99.30
46356;DHT22;32066;49.474;11.106;2023-02-01T06:48:50;6.70;99.30
46356;DHT22;32066;49.474;11.106;2023-02-01T06:51:21;6.70;99.30
46356;DHT22;32066;49.474;11.106;2023-02-01T06:53:48;6.70;99.30
46356;DHT22;32066;49.474;11.106;2023-02-01T06:56:15;6.70;99.30
46356;DHT22;32066;49.474;11.106;2023-02-01T06:58:42;6.70;99.30
46356;DHT22;32066;49.474;11.106;2023-02-01T07:01:11;6.70;99.40
46356;DHT22;32066;49.474;11.106;2023-02-01T07:03:38;6.70;99.30
46356;DHT22;32066;49.474;11.106;2023-02-01T07:06:05;6.70;99.30
46356;DHT22;32066;49.474;11.106;2023-02-01T07:08:34;6.70;99.50
46356;DHT22;32066;49.474;11.106;2023-02-01T07:11:02;6.70;99.30
46356;DHT22;32066;49.474;11.106;2023-02-01T07:13:29;6.70;99.30
46356;DHT22;32066;49.474;11.106;2023-02-01T07:15:58;6.70;99.30
46356;DHT22;32066;49.474;11.106;2023-02-01T07:18:27;6.70;99.30
46356;DHT22;32066;49.474;11.106;2023-02-01T07:20:55;6.70;99.40
46356;DHT22;32066;49.474;11.106;2023-02-01T07:23:22;6.70;99.40
46356;DHT22;32066;49.474;11.106;2023-02-01T07:25:53;6.70;99.30
46356;DHT22;32066;49.474;11.106;2023-02-01T07:28:20;6.70;99.40
46356;DHT22;32066;49.474;11.106;2023-02-01T07:30:47;6.70;99.40
46356;DHT22;32066;49.474;11.106;2023-02-01T07:33:18;6.70;99.40
46356;DHT22;32066;49.474;11.106;2023-02-01T07:35:46;6.70;99.40
46356;DHT22;32066;49.474;11.106;2023-02-01T07:38:13;6.70;99.40
46356;DHT22;32066;49.474;11.106;2023-02-01T07:40:40;6.70;99.40
46356;DHT22;32066;49.474;11.106;2023-02-01T07:43:07;6.70;99.40
46356;DHT22;32066;49.474;11.106;2023-02-01T07:45:34;6.70;99.50
46356;DHT22;32066;49.474;11.106;2023-02-01T07:48:02;6.70;99.50
46356;DHT22;32066;49.474;11.106;2023-02-01T07:50:29;6.70;99.50
46356;DHT22;32066;49.474;11.106;2023-02-01T07:52:58;6.70;99.40
46356;DHT22;32066;49.474;11.106;2023-02-01T07:55:25;6.80;99.50
46356;DHT22;32066;49.474;11.106;2023-02-01T07:57:52;6.80;99.40
46356;DHT22;32066;49.474;11.106;2023-02-01T08:00:19;6.70;99.50
46356;DHT22;32066;49.474;11.106;2023-02-01T08:03:04;6.80;99.50
46356;DHT22;32066;49.474;11.106;2023-02-01T08:05:31;6.80;99.50
46356;DHT22;32066;49.474;11.106;2023-02-01T08:07:59;6.80;99.50
46356;DHT22;32066;49.474;11.106;2023-02-01T08:10:26;6.80;99.50
46356;DHT22;32066;49.474;11.106;2023-02-01T08:12:58;6.80;99.40
46356;DHT22;32066;49.474;11.106;2023-02-01T08:15:25;6.90;99.40
46356;DHT22;32066;49.474;11.106;2023-02-01T08:17:53;7.00;99.40
46356;DHT22;32066;49.474;11.106;2023-02-01T08:20:21;7.00;99.40
46356;DHT22;32066;49.474;11.106;2023-02-01T08:22:48;7.00;99.30
46356;DHT22;32066;49.474;11.106;2023-02-01T08:25:18;7.10;99.30
46356;DHT22;32066;49.474;11.106;2023-02-01T08:27:45;7.10;99.20
46356;DHT22;32066;49.474;11.106;2023-02-01T08:30:12;7.20;99.20
46356;DHT22;32066;49.474;11.106;2023-02-01T08:32:39;7.20;99.10
46356;DHT22;32066;49.474;11.106;2023-02-01T08:35:07;7.20;99.00
46356;DHT22;32066;49.474;11.106;2023-02-01T08:37:34;7.30;99.00
46356;DHT22;32066;49.474;11.106;2023-02-01T08:40:01;7.30;99.00
46356;DHT22;32066;49.474;11.106;2023-02-01T08:42:29;7.30;98.90
46356;DHT22;32066;49.474;11.106;2023-02-01T08:45:14;7.30;98.90
46356;DHT22;32066;49.474;11.106;2023-02-01T08:47:40;7.30;98.80
46356;DHT22;32066;49.474;11.106;2023-02-01T08:50:09;7.30;98.80
46356;DHT22;32066;49.474;11.106;2023-02-01T08:52:36;7.30;98.80
46356;DHT22;32066;49.474;11.106;2023-02-01T08:55:15;7.30;98.80
46356;DHT22;32066;49.474;11.106;2023-02-01T08:57:44;7.40;98.70
46356;DHT22;32066;49.474;11.106;2023-02-01T09:00:19;7.50;98.60
46356;DHT22;32066;49.474;11.106;2023-02-01T09:03:30;7.40;98.60
46356;DHT22;32066;49.474;11.106;2023-02-01T09:09:47;7.40;98.40
46356;DHT22;32066;49.474;11.106;2023-02-01T09:12:43;7.50;98.30
46356;DHT22;32066;49.474;11.106;2023-02-01T09:15:44;7.50;98.20
46356;DHT22;32066;49.474;11.106;2023-02-01T09:18:19;7.50;98.30
46356;DHT22;32066;49.474;11.106;2023-02-01T09:21:22;7.40;98.30
46356;DHT22;32066;49.474;11.106;2023-02-01T09:24:11;7.50;98.50
46356;DHT22;32066;49.474;11.106;2023-02-01T09:26:59;7.40;98.70
46356;DHT22;32066;49.474;11.106;2023-02-01T09:29:44;7.40;98.60
46356;DHT22;32066;49.474;11.106;2023-02-01T09:32:51;7.40;98.50
46356;DHT22;32066;49.474;11.106;2023-02-01T09:36:10;7.50;98.40
46356;DHT22;32066;49.474;11.106;2023-02-01T09:38:54;7.50;98.20
46356;DHT22;32066;49.474;11.106;2023-02-01T09:41:45;7.50;98.30
46356;DHT22;32066;49.474;11.106;2023-02-01T09:44:44;7.50;98.00
46356;DHT22;32066;49.474;11.106;2023-02-01T09:47:35;7.50;97.90
46356;DHT22;32066;49.474;11.106;2023-02-01T09:50:43;7.50;97.70
46356;DHT22;32066;49.474;11.106;2023-02-01T09:53:17;7.50;97.50
46356;DHT22;32066;49.474;11.106;2023-02-01T09:56:22;7.50;97.60
46356;DHT22;32066;49.474;11.106;2023-02-01T09:59:29;7.40;97.50
46356;DHT22;32066;49.474;11.106;2023-02-01T10:02:36;7.50;97.40
46356;DHT22;32066;49.474;11.106;2023-02-01T10:05:53;7.50;97.40
46356;DHT22;32066;49.474;11.106;2023-02-01T10:11:48;7.50;97.30
46356;DHT22;32066;49.474;11.106;2023-02-01T10:15:17;7.50;97.30
46356;DHT22;32066;49.474;11.106;2023-02-01T10:22:08;7.50;97.30
46356;DHT22;32066;49.474;11.106;2023-02-01T10:25:06;7.50;97.30
46356;DHT22;32066;49.474;11.106;2023-02-01T10:27:37;7.50;97.40
46356;DHT22;32066;49.474;11.106;2023-02-01T10:30:18;7.50;97.40
46356;DHT22;32066;49.474;11.106;2023-02-01T10:32:49;7.50;97.40
46356;DHT22;32066;49.474;11.106;2023-02-01T10:35:26;7.50;97.40
46356;DHT22;32066;49.474;11.106;2023-02-01T10:37:58;7.50;97.50
46356;DHT22;32066;49.474;11.106;2023-02-01T10:40:27;7.50;97.60
46356;DHT22;32066;49.474;11.106;2023-02-01T10:42:57;7.50;97.60
46356;DHT22;32066;49.474;11.106;2023-02-01T10:45:28;7.60;97.80
46356;DHT22;32066;49.474;11.106;2023-02-01T10:47:57;7.60;97.80
46356;DHT22;32066;49.474;11.106;2023-02-01T10:50:34;7.60;97.80
46356;DHT22;32066;49.474;11.106;2023-02-01T10:53:11;7.70;97.70
46356;DHT22;32066;49.474;11.106;2023-02-01T10:55:40;7.60;97.60
46356;DHT22;32066;49.474;11.106;2023-02-01T10:58:15;7.70;97.70
46356;DHT22;32066;49.474;11.106;2023-02-01T11:00:46;7.80;97.60
46356;DHT22;32066;49.474;11.106;2023-02-01T11:03:35;7.70;97.50
46356;DHT22;32066;49.474;11.106;2023-02-01T11:06:10;7.70;97.50
46356;DHT22;32066;49.474;11.106;2023-02-01T11:08:46;7.70;97.50
46356;DHT22;32066;49.474;11.106;2023-02-01T11:11:15;7.70;97.60
46356;DHT22;32066;49.474;11.106;2023-02-01T11:13:52;7.70;97.60
46356;DHT22;32066;49.474;11.106;2023-02-01T11:16:20;7.60;97.70
46356;DHT22;32066;49.474;11.106;2023-02-01T11:18:53;7.70;97.80
46356;DHT22;32066;49.474;11.106;2023-02-01T11:21:21;7.60;97.80
46356;DHT22;32066;49.474;11.106;2023-02-01T11:23:54;7.60;97.80
46356;DHT22;32066;49.474;11.106;2023-02-01T11:26:23;7.50;97.90
46356;DHT22;32066;49.474;11.106;2023-02-01T11:28:54;7.50;97.90
46356;DHT22;32066;49.474;11.106;2023-02-01T11:31:25;7.50;98.20
46356;DHT22;32066;49.474;11.106;2023-02-01T11:33:55;7.50;98.00
46356;DHT22;32066;49.474;11.106;2023-02-01T11:36:27;7.50;98.10
46356;DHT22;32066;49.474;11.106;2023-02-01T11:39:17;7.50;98.10
46356;DHT22;32066;49.474;11.106;2023-02-01T11:42:00;7.50;98.10
46356;DHT22;32066;49.474;11.106;2023-02-01T11:44:32;7.50;98.10
46356;DHT22;32066;49.474;11.106;2023-02-01T11:47:24;7.60;98.00
46356;DHT22;32066;49.474;11.106;2023-02-01T11:49:53;7.50;97.90
46356;DHT22;32066;49.474;11.106;2023-02-01T11:52:39;7.60;97.80
46356;DHT22;32066;49.474;11.106;2023-02-01T11:55:32;7.60;97.70
46356;DHT22;32066;49.474;11.106;2023-02-01T11:58:16;7.60;97.70
46356;DHT22;32066;49.474;11.106;2023-02-01T12:01:01;7.60;97.80
46356;DHT22;32066;49.474;11.106;2023-02-01T12:06:48;7.60;97.80
46356;DHT22;32066;49.474;11.106;2023-02-01T12:09:40;7.50;97.70
46356;DHT22;32066;49.474;11.106;2023-02-01T12:12:19;7.50;97.80
46356;DHT22;32066;49.474;11.106;2023-02-01T12:15:04;7.50;97.70
46356;DHT22;32066;49.474;11.106;2023-02-01T12:17:58;7.50;97.70
46356;DHT22;32066;49.474;11.106;2023-02-01T12:20:42;7.50;97.80
46356;DHT22;32066;49.474;11.106;2023-02-01T12:23:31;7.60;97.70
46356;DHT22;32066;49.474;11.106;2023-02-01T12:26:11;7.60;97.70
46356;DHT22;32066;49.474;11.106;2023-02-01T12:29:05;7.60;97.70
46356;DHT22;32066;49.474;11.106;2023-02-01T12:31:50;7.60;97.60
46356;DHT22;32066;49.474;11.106;2023-02-01T12:34:28;7.60;97.50
46356;DHT22;32066;49.474;11.106;2023-02-01T12:37:07;7.60;97.40
46356;DHT22;32066;49.474;11.106;2023-02-01T12:39:39;7.60;97.30
46356;DHT22;32066;49.474;11.106;2023-02-01T12:42:13;7.60;97.30
46356;DHT22;32066;49.474;11.106;2023-02-01T12:44:45;7.60;97.20
46356;DHT22;32066;49.474;11.106;2023-02-01T12:47:19;7.60;97.20
46356;DHT22;32066;49.474;11.106;2023-02-01T12:49:53;7.60;97.10
46356;DHT22;32066;49.474;11.106;2023-02-01T12:52:28;7.60;97.00
46356;DHT22;32066;49.474;11.106;2023-02-01T12:55:06;7.60;96.90
46356;DHT22;32066;49.474;11.106;2023-02-01T12:57:37;7.60;96.90
46356;DHT22;32066;49.474;11.106;2023-02-01T13:00:17;7.60;96.90
46356;DHT22;32066;49.474;11.106;2023-02-01T13:02:55;7.60;96.90
46356;DHT22;32066;49.474;11.106;2023-02-01T13:05:28;7.70;96.90
46356;DHT22;32066;49.474;11.106;2023-02-01T13:08:02;7.70;97.00
46356;DHT22;32066;49.474;11.106;2023-02-01T13:10:34;7.70;96.60
46356;DHT22;32066;49.474;11.106;2023-02-01T13:13:10;7.70;96.50
46356;DHT22;32066;49.474;11.106;2023-02-01T13:15:44;7.70;96.50
46356;DHT22;32066;49.474;11.106;2023-02-01T13:18:17;7.70;96.50
46356;DHT22;32066;49.474;11.106;2023-02-01T13:20:53;7.70;96.40
46356;DHT22;32066;49.474;11.106;2023-02-01T13:23:26;7.60;96.40
46356;DHT22;32066;49.474;11.106;2023-02-01T13:25:55;7.60;96.40
46356;DHT22;32066;49.474;11.106;2023-02-01T13:28:27;7.60;96.50
46356;DHT22;32066;49.474;11.106;2023-02-01T13:34:25;7.60;96.60
46356;DHT22;32066;49.474;11.106;2023-02-01T13:37:03;7.70;96.70
46356;DHT22;32066;49.474;11.106;2023-02-01T13:39:45;7.70;96.80
46356;DHT22;32066;49.474;11.106;2023-02-01T13:42:17;7.60;96.80
46356;DHT22;32066;49.474;11.106;2023-02-01T13:45:48;7.60;96.90
46356;DHT22;32066;49.474;11.106;2023-02-01T13:48:45;7.70;96.90
46356;DHT22;32066;49.474;11.106;2023-02-01T13:51:40;7.60;96.80
46356;DHT22;32066;49.474;11.106;2023-02-01T13:54:31;7.70;96.70
46356;DHT22;32066;49.474;11.106;2023-02-01T13:57:04;7.70;96.60
46356;DHT22;32066;49.474;11.106;2023-02-01T13:59:51;7.70;96.50
46356;DHT22;32066;49.474;11.106;2023-02-01T14:06:34;7.70;96.40
46356;DHT22;32066;49.474;11.106;2023-02-01T14:09:12;7.70;96.40
46356;DHT22;32066;49.474;11.106;2023-02-01T14:11:44;7.70;96.40
46356;DHT22;32066;49.474;11.106;2023-02-01T14:14:40;7.70;96.30
46356;DHT22;32066;49.474;11.106;2023-02-01T14:17:31;7.70;96.30
46356;DHT22;32066;49.474;11.106;2023-02-01T14:23:25;7.70;96.20
46356;DHT22;32066;49.474;11.106;2023-02-01T14:26:09;7.70;96.10
46356;DHT22;32066;49.474;11.106;2023-02-01T14:28:41;7.80;96.20
46356;DHT22;32066;49.474;11.106;2023-02-01T14:31:29;7.80;96.10
46356;DHT22;32066;49.474;11.106;2023-02-01T14:34:01;7.80;96.10
46356;DHT22;32066;49.474;11.106;2023-02-01T14:36:41;7.80;96.00
46356;DHT22;32066;49.474;11.106;2023-02-01T14:39:31;7.80;96.10
46356;DHT22;32066;49.474;11.106;2023-02-01T14:42:03;7.70;96.10
46356;DHT22;32066;49.474;11.106;2023-02-01T14:44:36;7.70;96.00
46356;DHT22;32066;49.474;11.106;2023-02-01T14:47:25;7.70;96.00
46356;DHT22;32066;49.474;11.106;2023-02-01T14:50:21;7.80;96.00
46356;DHT22;32066;49.474;11.106;2023-02-01T14:52:58;7.70;96.00
46356;DHT22;32066;49.474;11.106;2023-02-01T14:55:35;7.80;96.00
46356;DHT22;32066;49.474;11.106;2023-02-01T14:58:06;7.70;96.00
46356;DHT22;32066;49.474;11.106;2023-02-01T15:00:50;7.70;96.00
46356;DHT22;32066;49.474;11.106;2023-02-01T15:03:31;7.70;96.00
46356;DHT22;32066;49.474;11.106;2023-02-01T15:06:24;7.70;96.00
46356;DHT22;32066;49.474;11.106;2023-02-01T15:08:55;7.70;96.00
46356;DHT22;32066;49.474;11.106;2023-02-01T15:11:25;7.70;96.20
46356;DHT22;32066;49.474;11.106;2023-02-01T15:13:54;7.70;96.00
46356;DHT22;32066;49.474;11.106;2023-02-01T15:16:24;7.70;96.00
46356;DHT22;32066;49.474;11.106;2023-02-01T15:19:11;7.70;96.00
46356;DHT22;32066;49.474;11.106;2023-02-01T15:21:46;7.60;96.00
46356;DHT22;32066;49.474;11.106;2023-02-01T15:24:19;7.70;95.90
46356;DHT22;32066;49.474;11.106;2023-02-01T15:26:50;7.70;96.00
46356;DHT22;32066;49.474;11.106;2023-02-01T15:29:20;7.70;96.00
46356;DHT22;32066;49.474;11.106;2023-02-01T15:31:52;7.60;96.00
46356;DHT22;32066;49.474;11.106;2023-02-01T15:34:20;7.70;96.10
46356;DHT22;32066;49.474;11.106;2023-02-01T15:36:48;7.60;96.10
46356;DHT22;32066;49.474;11.106;2023-02-01T15:39:19;7.60;96.00
46356;DHT22;32066;49.474;11.106;2023-02-01T15:41:58;7.60;96.10
46356;DHT22;32066;49.474;11.106;2023-02-01T15:44:33;7.60;96.00
46356;DHT22;32066;49.474;11.106;2023-02-01T15:47:12;7.60;95.90
46356;DHT22;32066;49.474;11.106;2023-02-01T15:49:44;7.60;95.90
46356;DHT22;32066;49.474;11.106;2023-02-01T15:52:21;7.60;95.80
46356;DHT22;32066;49.474;11.106;2023-02-01T15:54:51;7.60;95.80
46356;DHT22;32066;49.474;11.106;2023-02-01T15:57:22;7.60;95.90
46356;DHT22;32066;49.474;11.106;2023-02-01T15:59:57;7.60;95.80
46356;DHT22;32066;49.474;11.106;2023-02-01T16:02:34;7.60;95.70
46356;DHT22;32066;49.474;11.106;2023-02-01T16:05:04;7.60;95.60
46356;DHT22;32066;49.474;11.106;2023-02-01T16:07:34;7.60;95.70
46356;DHT22;32066;49.474;11.106;2023-02-01T16:10:02;7.60;95.50
46356;DHT22;32066;49.474;11.106;2023-02-01T16:12:49;7.60;95.50
46356;DHT22;32066;49.474;11.106;2023-02-01T16:15:18;7.60;95.40
46356;DHT22;32066;49.474;11.106;2023-02-01T16:17:46;7.60;95.30
46356;DHT22;32066;49.474;11.106;2023-02-01T16:20:20;7.60;95.20
46356;DHT22;32066;49.474;11.106;2023-02-01T16:22:48;7.60;95.10
46356;DHT22;32066;49.474;11.106;2023-02-01T16:25:16;7.60;95.10
46356;DHT22;32066;49.474;11.106;2023-02-01T16:27:45;7.60;95.10
46356;DHT22;32066;49.474;11.106;2023-02-01T16:30:15;7.60;95.10
46356;DHT22;32066;49.474;11.106;2023-02-01T16:32:48;7.60;95.10
46356;DHT22;32066;49.474;11.106;2023-02-01T16:35:21;7.60;95.00
46356;DHT22;32066;49.474;11.106;2023-02-01T16:37:49;7.60;95.00
46356;DHT22;32066;49.474;11.106;2023-02-01T16:40:18;7.60;94.90
46356;DHT22;32066;49.474;11.106;2023-02-01T16:42:51;7.60;94.80